createdAt,value
2022-09-20T00:01:29.535Z,100.00
2022-09-20T00:11:34.389Z,100.00
2022-09-20T00:21:37.991Z,100.00
2022-09-20T00:31:42.948Z,100.00
2022-09-20T00:41:46.612Z,100.00
2022-09-20T00:51:55.424Z,100.00
2022-09-20T01:02:13.992Z,100.00
2022-09-20T01:12:21.803Z,100.00
2022-09-20T01:22:34.389Z,100.00
2022-09-20T01:32:55.566Z,100.00
2022-09-20T01:43:43.006Z,100.00
2022-09-20T01:54:13.277Z,100.00
2022-09-20T02:04:31.003Z,100.00
2022-09-20T02:14:53.182Z,100.00
2022-09-20T02:24:58.933Z,100.00
2022-09-20T02:35:09.291Z,100.00
2022-09-20T02:45:40.627Z,100.00
2022-09-20T02:55:59.218Z,100.00
2022-09-20T03:06:12.667Z,100.00
2022-09-20T03:16:27.971Z,100.00
2022-09-20T03:26:43.419Z,100.00
2022-09-20T03:37:10.673Z,100.00
2022-09-20T03:47:51.988Z,100.00
2022-09-20T03:58:08.969Z,100.00
2022-09-20T04:08:27.032Z,100.00
2022-09-20T04:18:50.414Z,100.00
2022-09-20T04:28:56.142Z,100.00
2022-09-20T04:39:11.765Z,100.00
2022-09-20T04:49:48.981Z,100.00
2022-09-20T05:00:04.389Z,100.00
2022-09-20T05:10:25.917Z,100.00
2022-09-20T05:20:59.591Z,100.00
2022-09-20T05:31:10.339Z,100.00
2022-09-20T05:41:41.156Z,100.00
2022-09-20T05:52:13.398Z,100.00
2022-09-20T06:02:28.607Z,100.00
2022-09-20T06:12:44.876Z,100.00
2022-09-20T06:22:54.744Z,100.00
2022-09-20T06:33:00.777Z,100.00
2022-09-20T06:43:04.106Z,97.64
2022-09-20T06:53:07.263Z,98.11
2022-09-20T07:03:12.700Z,99.59
2022-09-20T07:13:15.672Z,100.00
2022-09-20T07:23:19.386Z,98.87
2022-09-20T07:33:22.362Z,99.91
2022-09-20T07:43:25.621Z,96.60
2022-09-20T07:53:29.597Z,96.43
2022-09-20T08:03:33.645Z,94.92
2022-09-20T08:24:05.777Z,84.90
2022-09-20T08:34:12.157Z,79.50
2022-09-20T08:44:27.814Z,71.49
2022-09-20T08:54:33.441Z,70.55
2022-09-20T09:04:37.088Z,64.94
2022-09-20T09:14:49.428Z,70.68
2022-09-20T09:25:14.355Z,74.55
2022-09-20T09:35:30.555Z,68.10
2022-09-20T09:45:38.798Z,64.03
2022-09-20T09:55:52.705Z,69.91
2022-09-20T10:06:23.337Z,69.77
2022-09-20T10:17:00.336Z,68.90
2022-09-20T10:27:38.644Z,69.94
2022-09-20T10:38:01.787Z,66.22
2022-09-20T10:48:10.105Z,62.21
2022-09-20T10:58:16.072Z,57.06
2022-09-20T11:08:27.070Z,55.99
2022-09-20T11:19:10.863Z,56.04
2022-09-20T11:29:19.869Z,54.28
2022-09-20T11:39:30.599Z,60.61
2022-09-20T11:49:46.374Z,53.80
2022-09-20T11:59:55.407Z,56.12
2022-09-20T12:10:08.458Z,57.08
2022-09-20T12:20:32.989Z,54.99
2022-09-20T12:30:35.960Z,54.19
2022-09-20T12:41:17.132Z,56.33
2022-09-20T12:51:48.620Z,56.20
2022-09-20T13:01:51.682Z,60.60
2022-09-20T13:11:56.979Z,57.51
2022-09-20T13:21:59.842Z,55.05
2022-09-20T13:32:41.754Z,54.61
2022-09-20T13:42:46.625Z,56.63
2022-09-20T13:52:56.488Z,54.67
2022-09-20T14:02:59.732Z,57.06
2022-09-20T14:13:06.878Z,66.54
2022-09-20T14:23:25.710Z,75.03
2022-09-20T14:33:29.007Z,83.12
2022-09-20T14:43:34.924Z,86.44
2022-09-20T14:53:38.431Z,93.19
2022-09-20T15:03:42.206Z,96.90
2022-09-20T15:13:45.281Z,97.98
2022-09-20T15:35:18.905Z,100.00
2022-09-20T15:45:23.491Z,100.00
2022-09-20T15:55:26.833Z,100.00
2022-09-20T16:05:29.818Z,100.00
2022-09-20T16:15:56.393Z,100.00
2022-09-20T16:26:16.970Z,100.00
2022-09-20T16:36:27.459Z,100.00
2022-09-20T16:46:32.900Z,100.00
2022-09-20T16:56:37.249Z,100.00
2022-09-20T17:07:30.423Z,100.00
2022-09-20T17:17:34.450Z,100.00
2022-09-20T17:27:39.814Z,100.00
2022-09-20T17:37:43.265Z,100.00
2022-09-20T17:47:46.198Z,100.00
2022-09-20T17:57:49.674Z,100.00
2022-09-20T18:07:52.557Z,100.00
2022-09-20T18:17:55.592Z,100.00
2022-09-20T18:27:59.375Z,100.00
2022-09-20T18:38:02.653Z,100.00
2022-09-20T18:48:07.577Z,100.00
2022-09-20T18:58:11.339Z,100.00
2022-09-20T19:08:42.522Z,100.00
2022-09-20T19:19:00.731Z,100.00
2022-09-20T19:29:11.768Z,100.00
2022-09-20T19:39:36.731Z,100.00
2022-09-20T19:50:17.952Z,100.00
2022-09-20T20:00:21.525Z,100.00
2022-09-20T20:10:52.666Z,100.00
2022-09-20T20:20:57.012Z,100.00
2022-09-20T20:31:02.335Z,100.00
2022-09-20T20:41:08.715Z,100.00
2022-09-20T20:51:14.027Z,100.00
2022-09-20T21:01:22.645Z,100.00
2022-09-20T21:11:31.166Z,100.00
2022-09-20T21:21:36.265Z,100.00
2022-09-20T21:31:42.060Z,100.00
2022-09-20T21:41:46.792Z,100.00
2022-09-20T21:51:52.075Z,100.00
2022-09-20T22:01:55.265Z,100.00
2022-09-20T22:11:58.303Z,100.00
2022-09-20T22:22:01.234Z,100.00
2022-09-20T22:32:04.164Z,100.00
2022-09-20T22:42:07.181Z,100.00
2022-09-20T22:52:10.125Z,100.00
2022-09-20T23:02:12.974Z,100.00
2022-09-20T23:12:15.898Z,100.00
2022-09-20T23:22:18.857Z,100.00
2022-09-20T23:32:21.838Z,100.00
2022-09-20T23:42:24.771Z,100.00
2022-09-20T23:52:27.739Z,100.00
